Nearby METAR Reports

 

KCMA - Camarillo, California, USA
Distance from station: WSW 4mi, 7km
Updated: Wed, 23-May-2018 12:55am PDT
Clear
Clear
 Wind from calm
Wind: Calm
Temperature: 55°F , 13°C
Dew Point: 50°F , 10°C
Humidity: 82%
Barometer: 29.93 inHg , 1013.5 hPa
Clouds: Clear
Visibility: 10 miles , 16 km
2018/05/23 07:55 KCMA 230755Z AUTO 00000KT 10SM CLR 13/10 A2993 RMK AO2 SLP143 T01280100 402000128
KNTD - Point Mugu Nas, California, USA
Distance from station: SSW 9mi, 15km
Updated: Wed, 23-May-2018 12:58am PDT
Clear
Clear
 Wind from calm
Wind: Calm
Temperature: 55°F , 13°C
Dew Point: 52°F , 11°C
Humidity: 88%
Barometer: 29.94 inHg , 1013.9 hPa
Clouds: Clear
Visibility: 10 miles , 16 km
2018/05/23 07:58 KNTD 230758Z AUTO 00000KT 10SM CLR 13/11 A2994 RMK AO2 SLP138 T01280106 401940128 CHINO N VISNO N $
 
KOXR - Oxnard, California, USA
Distance from station: WSW 10mi, 16km
Updated: Wed, 23-May-2018 1:51am PDT
Clear
Clear
 Wind from calm
Wind: Calm
Temperature: 57°F , 14°C
Dew Point: 54°F , 12°C
Humidity: 88%
Barometer: 29.93 inHg , 1013.5 hPa
Clouds: Clear
Visibility: 10 miles , 16 km
2018/05/23 08:51 KOXR 230851Z AUTO 00000KT 10SM CLR 14/12 A2993 RMK AO2 SLP133 T01390117 58004
KVNY - Van Nuys, California, USA
Distance from station: E 31mi, 50km
Updated: Wed, 23-May-2018 1:51am PDT
Overcast
Overcast
 Wind from calm
Wind: Calm
Temperature: 61°F , 16°C
Dew Point: 50°F , 10°C
Humidity: 68%
Barometer: 29.92 inHg , 1013.2 hPa
Clouds: Overcast
Visibility: 10 miles , 16 km
Cloud details: Overcast 2700 ft
2018/05/23 08:51 KVNY 230851Z AUTO 00000KT 10SM OVC027 16/10 A2992 RMK AO2 SLP125 T01560100 58003
 
KWHP - La / Whiteman, California, USA
Distance from station: E 35mi, 56km
Updated: Tue, 22-May-2018 7:50pm PDT
NOT Current
Overcast
Overcast
 Wind from ESE
Wind: ESE 8 mph , 13 km/h
Temperature: 63°F , 17°C
Dew Point: 50°F , 10°C
Humidity: 64%
Barometer: 29.93 inHg , 1013.5 hPa
Clouds: Overcast
Visibility: 10 miles , 16 km
Cloud details: Overcast 4000 ft
2018/05/23 02:50 KWHP 230250Z 12007KT 10SM OVC040 17/10 A2993 RMK LAST
KSMO - Santa Monica, California, USA
Distance from station: ESE 36mi, 58km
Updated: Wed, 31-Dec-1969 4:00pm PST
NOT Current
unable to load KSMO data RC=404 Not Found
unable to load KSMO data RC=404 Not Found
 
 
KBUR - Burbank, California, USA
Distance from station: E 38mi, 61km
Updated: Wed, 23-May-2018 12:53am PDT
Overcast
Overcast
 Wind from calm
Wind: Calm
Temperature: 61°F , 16°C
Dew Point: 52°F , 11°C
Humidity: 72%
Barometer: 29.92 inHg , 1013.2 hPa
Clouds: Overcast
Visibility: 10 miles , 16 km
Cloud details: Overcast 2700 ft
2018/05/23 07:53 KBUR 230753Z AUTO 00000KT 10SM OVC027 16/11 A2992 RMK AO2 SLP121 T01560111 402000139
KSDB - Sandberg, California, USA
Distance from station: NNE 40mi, 64km
Updated: Wed, 23-May-2018 1:53am PDT
Clear
Clear
 Wind from WNW
Wind: WNW 13 mph , 20 km/h
Temperature: 54°F , 12°C
Dew Point: 43°F , 6°C
Humidity: 67%
Barometer: 29.97 inHg , 1014.9 hPa
Clouds: Clear
Visibility: 10 miles , 16 km
2018/05/23 08:53 KSDB 230853Z AUTO 30011KT 10SM CLR 12/06 A2997 RMK AO2 SLP107 T01170061 58004
 
KLAX - Los Angeles, California, USA
Distance from station: ESE 42mi, 68km
Updated: Wed, 31-Dec-1969 4:00pm PST
NOT Current
unable to load KLAX data RC=404 Not Found
unable to load KLAX data RC=404 Not Found
 
KCQT - Los Angeles, California, USA
Distance from station: ESE 45mi, 73km
Updated: Wed, 23-May-2018 1:47am PDT
Overcast
Overcast
 Wind from calm
Wind: Calm
Temperature: 61°F , 16°C
Dew Point: 54°F , 12°C
Humidity: 77%
Barometer: 29.93 inHg , 1013.5 hPa
Clouds: Overcast
Visibility: 10 miles , 16 km
Cloud details: Overcast 3400 ft
2018/05/23 08:47 KCQT 230847Z AUTO 00000KT 10SM OVC034 16/12 A2993 RMK AO2 SLP132 T01560117 55002
 
KHHR - Hawthorne, California, USA
Distance from station: ESE 45mi, 73km
Updated: Wed, 23-May-2018 12:53am PDT
Overcast
Overcast
 Wind from SW
Wind: SW 5 mph , 7 km/h
Temperature: 61°F , 16°C
Dew Point: 55°F , 13°C
Humidity: 83%
Barometer: 29.93 inHg , 1013.5 hPa
Clouds: Overcast
Visibility: 10 miles , 16 km
Cloud details: Overcast 3400 ft
2018/05/23 07:53 KHHR 230753Z AUTO 23004KT 10SM OVC034 16/13 A2993 RMK AO2 SLP136 T01560128 401890156
KSBA - Santa Barbara, California, USA
Distance from station: WNW 49mi, 79km
Updated: Wed, 23-May-2018 12:53am PDT
Clear
Clear
 Wind from E
Wind: E 5 mph , 7 km/h
Temperature: 57°F , 14°C
Dew Point: 54°F , 12°C
Humidity: 88%
Barometer: 29.92 inHg , 1013.2 hPa
Clouds: Clear
Visibility: 10 miles , 16 km
2018/05/23 07:53 KSBA 230753Z AUTO 10004KT 10SM CLR 14/12 A2992 RMK AO2 SLP132 T01390117 402000100